Garden, MI (49835)

10:15 AM EDT on July 07, 2015 (GMT -0400)
Garden Corners, Michigan | | Change Station
CLOSE
Current Station
Personal Weather Station
Location: Garden Corners, MI
Elevation: 587 ft
Nearby Weather Stations

Elev 587 ft 45.90 °N, 86.55 °W | Updated 1 minute ago

Mostly Cloudy
Mostly Cloudy
57.7 °F
Feels Like 57.7 °F
N
8.0
Wind Variable Wind from NNE
Gusts 12.0 mph

Today
High -- | Low -- °F
--% Chance of Precip.
Yesterday
High -- | Low -- °F
Precip. -- in
6:04 AM 9:37 PM
Waning Gibbous, 64% visible
Pressure 30.01 in
Visibility 10.0 miles
Clouds Few 2500 ft
Scattered Clouds 2900 ft
Overcast 4600 ft
Dew Point 50 °F
Humidity 76%
Rainfall 0.02 in
Snow Depth Not available.
UV 1 out of 12
Pollen .60 out of 12
Air Quality Not available.
Flu Activity Not available.
METAR KESC 071355Z AUTO 36010G17KT 10SM FEW025 SCT029 OVC046 14/09 A3001 RMK AO1

More Conditions Fewer Conditions

Pressure 30.01 in
Visibility 10.0 miles
Clouds Few 2500 ft
Scattered Clouds 2900 ft
Overcast 4600 ft
Dew Point 50 °F
Humidity 76%
Rainfall 0.02 in
Snow Depth Not available.
UV 1 out of 12
Pollen .60 out of 12
Air Quality Not available.
Flu Activity Not available.
METAR KESC 071355Z AUTO 36010G17KT 10SM FEW025 SCT029 OVC046 14/09 A3001 RMK AO1

More Conditions Fewer Conditions

10-Day Weather Forecast

×

Almanac

Astronomy

Jul. 07, 2015 Rise Set
Actual Time
Civil Twilight
Nautical Twilight
Astronomical Twilight
Moon
Length of Visible Light
Length of Day
Tomorrow will be .
, % of the Moon is Illuminated

Today's Extremes

State Highs State Lows

Community

WunderPhotos

Upload Photos

1,835,803 photos uploaded!

WunderBlogs® & News

Nearby

Air Quality

  Air Quality AQ Index Pollutant
Not available.

Snow Depth

Station Depth Elevation

Earthquake Activity

City Distance Mag. Time & Date
Minimum magnitude displayed is 2.5.

Coastal Water Temperatures

Place Temperature

Stations

Nearby Weather Stations

Station Location Temp. Windchill Dew Point Humidity Wind Precip. Elev Updated Type